sensor_id;sensor_type;location;lat;lon;timestamp;P1;durP1;ratioP1;P2;durP2;ratioP2
4009;SDS011;2019;48.200;11.548;2022-09-12T00:01:51;9.83;;;5.50;;
4009;SDS011;2019;48.200;11.548;2022-09-12T00:04:17;6.87;;;5.50;;
4009;SDS011;2019;48.200;11.548;2022-09-12T00:06:42;6.80;;;5.50;;
4009;SDS011;2019;48.200;11.548;2022-09-12T00:09:09;8.77;;;5.83;;
4009;SDS011;2019;48.200;11.548;2022-09-12T00:11:40;6.60;;;5.30;;
4009;SDS011;2019;48.200;11.548;2022-09-12T00:14:08;7.30;;;5.13;;
4009;SDS011;2019;48.200;11.548;2022-09-12T00:16:36;7.20;;;4.73;;
4009;SDS011;2019;48.200;11.548;2022-09-12T00:19:03;5.47;;;4.60;;
4009;SDS011;2019;48.200;11.548;2022-09-12T00:21:31;7.37;;;4.90;;
4009;SDS011;2019;48.200;11.548;2022-09-12T00:23:57;10.20;;;4.67;;
4009;SDS011;2019;48.200;11.548;2022-09-12T00:26:23;7.17;;;4.50;;
4009;SDS011;2019;48.200;11.548;2022-09-12T00:28:49;6.80;;;4.97;;
4009;SDS011;2019;48.200;11.548;2022-09-12T00:31:16;6.20;;;4.40;;
4009;SDS011;2019;48.200;11.548;2022-09-12T00:33:43;11.00;;;4.60;;
4009;SDS011;2019;48.200;11.548;2022-09-12T00:36:13;5.50;;;4.20;;
4009;SDS011;2019;48.200;11.548;2022-09-12T00:38:41;7.27;;;4.60;;
4009;SDS011;2019;48.200;11.548;2022-09-12T00:41:13;10.33;;;4.70;;
4009;SDS011;2019;48.200;11.548;2022-09-12T00:43:45;7.67;;;4.97;;
4009;SDS011;2019;48.200;11.548;2022-09-12T00:49:01;8.80;;;4.07;;
4009;SDS011;2019;48.200;11.548;2022-09-12T00:51:45;5.80;;;4.10;;
4009;SDS011;2019;48.200;11.548;2022-09-12T00:54:19;8.00;;;4.53;;
4009;SDS011;2019;48.200;11.548;2022-09-12T00:56:48;8.73;;;5.23;;
4009;SDS011;2019;48.200;11.548;2022-09-12T00:59:20;7.37;;;4.47;;
4009;SDS011;2019;48.200;11.548;2022-09-12T01:01:51;6.50;;;4.83;;
4009;SDS011;2019;48.200;11.548;2022-09-12T01:04:18;10.63;;;5.33;;
4009;SDS011;2019;48.200;11.548;2022-09-12T01:06:46;8.10;;;4.60;;
4009;SDS011;2019;48.200;11.548;2022-09-12T01:09:14;5.67;;;4.73;;
4009;SDS011;2019;48.200;11.548;2022-09-12T01:11:43;8.83;;;4.57;;
4009;SDS011;2019;48.200;11.548;2022-09-12T01:14:12;5.37;;;4.13;;
4009;SDS011;2019;48.200;11.548;2022-09-12T01:16:38;5.30;;;4.10;;
4009;SDS011;2019;48.200;11.548;2022-09-12T01:36:14;7.23;;;4.60;;
4009;SDS011;2019;48.200;11.548;2022-09-12T01:44:37;6.47;;;4.70;;
4009;SDS011;2019;48.200;11.548;2022-09-12T01:47:05;4.70;;;3.80;;
4009;SDS011;2019;48.200;11.548;2022-09-12T01:49:38;6.23;;;4.40;;
4009;SDS011;2019;48.200;11.548;2022-09-12T01:52:25;7.30;;;5.33;;
4009;SDS011;2019;48.200;11.548;2022-09-12T01:55:12;5.27;;;4.40;;
4009;SDS011;2019;48.200;11.548;2022-09-12T02:00:21;5.00;;;3.87;;
4009;SDS011;2019;48.200;11.548;2022-09-12T02:05:39;7.20;;;3.97;;
4009;SDS011;2019;48.200;11.548;2022-09-12T02:08:13;7.20;;;3.50;;
4009;SDS011;2019;48.200;11.548;2022-09-12T02:11:01;4.77;;;3.37;;
4009;SDS011;2019;48.200;11.548;2022-09-12T02:13:32;9.27;;;4.50;;
4009;SDS011;2019;48.200;11.548;2022-09-12T02:16:06;7.00;;;4.60;;
4009;SDS011;2019;48.200;11.548;2022-09-12T02:18:35;4.80;;;3.97;;
4009;SDS011;2019;48.200;11.548;2022-09-12T02:21:08;6.90;;;3.90;;
4009;SDS011;2019;48.200;11.548;2022-09-12T02:23:35;6.37;;;3.77;;
4009;SDS011;2019;48.200;11.548;2022-09-12T02:26:09;7.87;;;3.60;;
4009;SDS011;2019;48.200;11.548;2022-09-12T02:28:41;5.73;;;3.60;;
4009;SDS011;2019;48.200;11.548;2022-09-12T02:31:12;6.17;;;3.77;;
4009;SDS011;2019;48.200;11.548;2022-09-12T02:39:01;6.87;;;3.73;;
4009;SDS011;2019;48.200;11.548;2022-09-12T02:41:27;4.60;;;3.93;;
4009;SDS011;2019;48.200;11.548;2022-09-12T02:43:53;5.33;;;3.63;;
4009;SDS011;2019;48.200;11.548;2022-09-12T02:46:23;5.67;;;3.43;;
4009;SDS011;2019;48.200;11.548;2022-09-12T02:48:55;6.70;;;3.53;;
4009;SDS011;2019;48.200;11.548;2022-09-12T02:51:22;5.37;;;3.63;;
4009;SDS011;2019;48.200;11.548;2022-09-12T02:53:48;4.47;;;3.07;;
4009;SDS011;2019;48.200;11.548;2022-09-12T02:56:39;5.50;;;3.83;;
4009;SDS011;2019;48.200;11.548;2022-09-12T02:59:05;4.30;;;3.53;;
4009;SDS011;2019;48.200;11.548;2022-09-12T03:15:08;5.23;;;3.50;;
4009;SDS011;2019;48.200;11.548;2022-09-12T03:22:56;5.20;;;2.90;;
4009;SDS011;2019;48.200;11.548;2022-09-12T03:25:28;6.03;;;3.73;;
4009;SDS011;2019;48.200;11.548;2022-09-12T03:28:01;6.40;;;3.70;;
4009;SDS011;2019;48.200;11.548;2022-09-12T03:30:38;6.20;;;3.20;;
4009;SDS011;2019;48.200;11.548;2022-09-12T03:33:05;4.23;;;3.37;;
4009;SDS011;2019;48.200;11.548;2022-09-12T03:35:30;3.90;;;3.00;;
4009;SDS011;2019;48.200;11.548;2022-09-12T03:37:56;3.90;;;3.33;;
4009;SDS011;2019;48.200;11.548;2022-09-12T03:40:21;6.43;;;3.93;;
4009;SDS011;2019;48.200;11.548;2022-09-12T03:42:47;5.20;;;3.80;;
4009;SDS011;2019;48.200;11.548;2022-09-12T03:45:13;4.70;;;3.70;;
4009;SDS011;2019;48.200;11.548;2022-09-12T03:47:40;5.80;;;3.57;;
4009;SDS011;2019;48.200;11.548;2022-09-12T03:50:05;6.33;;;3.77;;
4009;SDS011;2019;48.200;11.548;2022-09-12T03:52:31;7.47;;;3.77;;
4009;SDS011;2019;48.200;11.548;2022-09-12T03:54:57;5.37;;;3.40;;
4009;SDS011;2019;48.200;11.548;2022-09-12T03:57:23;4.30;;;3.10;;
4009;SDS011;2019;48.200;11.548;2022-09-12T03:59:48;4.57;;;3.30;;
4009;SDS011;2019;48.200;11.548;2022-09-12T04:02:14;5.50;;;4.00;;
4009;SDS011;2019;48.200;11.548;2022-09-12T04:04:40;5.90;;;3.83;;
4009;SDS011;2019;48.200;11.548;2022-09-12T04:07:07;7.67;;;3.80;;
4009;SDS011;2019;48.200;11.548;2022-09-12T04:09:33;5.83;;;3.73;;
4009;SDS011;2019;48.200;11.548;2022-09-12T04:11:59;6.70;;;3.53;;
4009;SDS011;2019;48.200;11.548;2022-09-12T04:14:25;7.87;;;3.30;;
4009;SDS011;2019;48.200;11.548;2022-09-12T04:16:50;4.80;;;3.40;;
4009;SDS011;2019;48.200;11.548;2022-09-12T04:19:16;5.40;;;3.80;;
4009;SDS011;2019;48.200;11.548;2022-09-12T04:21:42;8.20;;;3.77;;
4009;SDS011;2019;48.200;11.548;2022-09-12T04:24:08;6.17;;;3.90;;
4009;SDS011;2019;48.200;11.548;2022-09-12T04:26:33;5.50;;;4.27;;
4009;SDS011;2019;48.200;11.548;2022-09-12T04:28:59;6.83;;;3.50;;
4009;SDS011;2019;48.200;11.548;2022-09-12T04:31:24;7.57;;;3.90;;
4009;SDS011;2019;48.200;11.548;2022-09-12T04:33:53;5.90;;;4.00;;
4009;SDS011;2019;48.200;11.548;2022-09-12T04:36:20;6.33;;;3.60;;
4009;SDS011;2019;48.200;11.548;2022-09-12T04:38:47;5.97;;;3.50;;
4009;SDS011;2019;48.200;11.548;2022-09-12T04:43:43;6.43;;;4.07;;
4009;SDS011;2019;48.200;11.548;2022-09-12T04:46:13;4.70;;;3.73;;
4009;SDS011;2019;48.200;11.548;2022-09-12T04:48:41;4.90;;;3.60;;
4009;SDS011;2019;48.200;11.548;2022-09-12T04:51:08;5.97;;;4.40;;
4009;SDS011;2019;48.200;11.548;2022-09-12T04:53:38;8.77;;;4.77;;
4009;SDS011;2019;48.200;11.548;2022-09-12T04:56:05;3.50;;;3.07;;
4009;SDS011;2019;48.200;11.548;2022-09-12T04:58:33;6.47;;;4.30;;
4009;SDS011;2019;48.200;11.548;2022-09-12T05:01:02;4.77;;;3.57;;
4009;SDS011;2019;48.200;11.548;2022-09-12T05:03:30;4.57;;;3.47;;
4009;SDS011;2019;48.200;11.548;2022-09-12T05:05:56;6.80;;;4.30;;
4009;SDS011;2019;48.200;11.548;2022-09-12T05:08:21;9.67;;;4.10;;
4009;SDS011;2019;48.200;11.548;2022-09-12T05:10:47;7.73;;;5.03;;
4009;SDS011;2019;48.200;11.548;2022-09-12T05:13:12;7.77;;;5.27;;
4009;SDS011;2019;48.200;11.548;2022-09-12T05:15:38;9.40;;;5.43;;
4009;SDS011;2019;48.200;11.548;2022-09-12T05:18:04;9.00;;;5.10;;
4009;SDS011;2019;48.200;11.548;2022-09-12T05:20:31;8.10;;;5.10;;
4009;SDS011;2019;48.200;11.548;2022-09-12T05:22:57;9.23;;;6.03;;
4009;SDS011;2019;48.200;11.548;2022-09-12T05:25:23;6.50;;;4.90;;
4009;SDS011;2019;48.200;11.548;2022-09-12T05:27:51;6.60;;;4.50;;
4009;SDS011;2019;48.200;11.548;2022-09-12T05:30:17;9.60;;;6.37;;
4009;SDS011;2019;48.200;11.548;2022-09-12T05:32:42;11.97;;;6.43;;
4009;SDS011;2019;48.200;11.548;2022-09-12T05:35:08;7.53;;;5.80;;
4009;SDS011;2019;48.200;11.548;2022-09-12T05:37:35;8.67;;;6.37;;
4009;SDS011;2019;48.200;11.548;2022-09-12T05:40:01;9.70;;;6.50;;
4009;SDS011;2019;48.200;11.548;2022-09-12T05:42:31;8.87;;;5.67;;
4009;SDS011;2019;48.200;11.548;2022-09-12T05:44:57;12.90;;;6.33;;
4009;SDS011;2019;48.200;11.548;2022-09-12T05:47:22;8.53;;;6.00;;
4009;SDS011;2019;48.200;11.548;2022-09-12T05:49:48;8.37;;;5.43;;
4009;SDS011;2019;48.200;11.548;2022-09-12T05:52:16;10.00;;;5.47;;
4009;SDS011;2019;48.200;11.548;2022-09-12T05:54:41;9.80;;;5.80;;
4009;SDS011;2019;48.200;11.548;2022-09-12T05:57:07;9.70;;;6.40;;
4009;SDS011;2019;48.200;11.548;2022-09-12T05:59:32;9.97;;;5.87;;
4009;SDS011;2019;48.200;11.548;2022-09-12T06:01:58;11.37;;;6.33;;
4009;SDS011;2019;48.200;11.548;2022-09-12T06:04:24;11.80;;;5.40;;
4009;SDS011;2019;48.200;11.548;2022-09-12T06:06:50;9.03;;;5.10;;
4009;SDS011;2019;48.200;11.548;2022-09-12T06:09:16;8.00;;;5.87;;
4009;SDS011;2019;48.200;11.548;2022-09-12T06:11:42;8.63;;;5.60;;
4009;SDS011;2019;48.200;11.548;2022-09-12T06:14:09;10.20;;;5.63;;
4009;SDS011;2019;48.200;11.548;2022-09-12T06:16:37;7.60;;;4.50;;
4009;SDS011;2019;48.200;11.548;2022-09-12T06:19:03;7.70;;;5.20;;
4009;SDS011;2019;48.200;11.548;2022-09-12T06:21:37;7.50;;;5.40;;
4009;SDS011;2019;48.200;11.548;2022-09-12T06:24:03;6.43;;;4.80;;
4009;SDS011;2019;48.200;11.548;2022-09-12T06:26:29;9.17;;;5.47;;
4009;SDS011;2019;48.200;11.548;2022-09-12T06:28:55;5.93;;;4.93;;
4009;SDS011;2019;48.200;11.548;2022-09-12T06:31:41;7.70;;;5.20;;
4009;SDS011;2019;48.200;11.548;2022-09-12T06:34:08;7.80;;;5.73;;
4009;SDS011;2019;48.200;11.548;2022-09-12T06:36:36;6.63;;;5.60;;
4009;SDS011;2019;48.200;11.548;2022-09-12T06:39:06;6.40;;;5.40;;
4009;SDS011;2019;48.200;11.548;2022-09-12T06:41:35;8.40;;;5.97;;
4009;SDS011;2019;48.200;11.548;2022-09-12T06:44:01;13.90;;;6.50;;
4009;SDS011;2019;48.200;11.548;2022-09-12T06:46:27;9.50;;;6.17;;
4009;SDS011;2019;48.200;11.548;2022-09-12T06:48:54;15.23;;;6.60;;
4009;SDS011;2019;48.200;11.548;2022-09-12T06:51:21;9.00;;;6.83;;
4009;SDS011;2019;48.200;11.548;2022-09-12T06:53:47;11.13;;;6.47;;
4009;SDS011;2019;48.200;11.548;2022-09-12T06:58:40;10.50;;;7.00;;
4009;SDS011;2019;48.200;11.548;2022-09-12T07:01:11;10.43;;;6.53;;
4009;SDS011;2019;48.200;11.548;2022-09-12T07:03:39;10.27;;;7.37;;
4009;SDS011;2019;48.200;11.548;2022-09-12T07:08:33;13.70;;;7.60;;
4009;SDS011;2019;48.200;11.548;2022-09-12T07:11:06;11.40;;;7.73;;
4009;SDS011;2019;48.200;11.548;2022-09-12T07:13:34;9.07;;;7.23;;
4009;SDS011;2019;48.200;11.548;2022-09-12T07:16:00;12.50;;;8.27;;
4009;SDS011;2019;48.200;11.548;2022-09-12T07:18:26;12.37;;;8.50;;
4009;SDS011;2019;48.200;11.548;2022-09-12T07:20:53;11.40;;;8.33;;
4009;SDS011;2019;48.200;11.548;2022-09-12T07:23:19;12.30;;;7.73;;
4009;SDS011;2019;48.200;11.548;2022-09-12T07:25:54;12.50;;;7.57;;
4009;SDS011;2019;48.200;11.548;2022-09-12T07:28:21;9.33;;;6.90;;
4009;SDS011;2019;48.200;11.548;2022-09-12T07:30:48;12.80;;;6.80;;
4009;SDS011;2019;48.200;11.548;2022-09-12T07:33:14;11.60;;;6.57;;
4009;SDS011;2019;48.200;11.548;2022-09-12T07:35:39;13.93;;;7.87;;
4009;SDS011;2019;48.200;11.548;2022-09-12T07:38:05;12.17;;;7.63;;
4009;SDS011;2019;48.200;11.548;2022-09-12T07:40:31;12.77;;;6.57;;
4009;SDS011;2019;48.200;11.548;2022-09-12T07:42:56;11.50;;;6.90;;
4009;SDS011;2019;48.200;11.548;2022-09-12T07:45:22;9.47;;;6.20;;
4009;SDS011;2019;48.200;11.548;2022-09-12T07:47:51;11.47;;;7.03;;
4009;SDS011;2019;48.200;11.548;2022-09-12T07:50:17;27.90;;;7.43;;
4009;SDS011;2019;48.200;11.548;2022-09-12T07:52:43;9.03;;;6.30;;
4009;SDS011;2019;48.200;11.548;2022-09-12T07:55:09;10.50;;;6.30;;
4009;SDS011;2019;48.200;11.548;2022-09-12T07:57:35;7.90;;;6.50;;
4009;SDS011;2019;48.200;11.548;2022-09-12T08:00:00;10.67;;;7.30;;
4009;SDS011;2019;48.200;11.548;2022-09-12T08:02:27;8.60;;;6.47;;
4009;SDS011;2019;48.200;11.548;2022-09-12T08:04:53;8.90;;;6.30;;
4009;SDS011;2019;48.200;11.548;2022-09-12T08:07:18;8.60;;;5.63;;
4009;SDS011;2019;48.200;11.548;2022-09-12T08:09:44;8.20;;;6.50;;
4009;SDS011;2019;48.200;11.548;2022-09-12T08:12:10;9.70;;;5.87;;
4009;SDS011;2019;48.200;11.548;2022-09-12T08:14:36;8.67;;;5.63;;
4009;SDS011;2019;48.200;11.548;2022-09-12T08:17:01;6.90;;;6.00;;
4009;SDS011;2019;48.200;11.548;2022-09-12T08:19:27;8.50;;;6.03;;
4009;SDS011;2019;48.200;11.548;2022-09-12T08:21:52;10.10;;;5.93;;
4009;SDS011;2019;48.200;11.548;2022-09-12T08:24:18;10.23;;;5.70;;
4009;SDS011;2019;48.200;11.548;2022-09-12T08:26:44;8.67;;;6.40;;
4009;SDS011;2019;48.200;11.548;2022-09-12T08:29:10;6.60;;;5.57;;
4009;SDS011;2019;48.200;11.548;2022-09-12T08:31:36;6.17;;;4.80;;
4009;SDS011;2019;48.200;11.548;2022-09-12T08:34:02;5.23;;;4.20;;
4009;SDS011;2019;48.200;11.548;2022-09-12T08:36:29;5.17;;;4.27;;
4009;SDS011;2019;48.200;11.548;2022-09-12T08:39:03;5.07;;;3.40;;
4009;SDS011;2019;48.200;11.548;2022-09-12T08:41:37;5.87;;;4.10;;
4009;SDS011;2019;48.200;11.548;2022-09-12T08:47:26;6.40;;;3.60;;
4009;SDS011;2019;48.200;11.548;2022-09-12T08:52:35;5.37;;;4.37;;
4009;SDS011;2019;48.200;11.548;2022-09-12T08:55:40;7.60;;;3.87;;
4009;SDS011;2019;48.200;11.548;2022-09-12T09:08:45;8.50;;;3.70;;
4009;SDS011;2019;48.200;11.548;2022-09-12T09:16:59;4.37;;;3.47;;
4009;SDS011;2019;48.200;11.548;2022-09-12T09:19:28;3.93;;;3.20;;
4009;SDS011;2019;48.200;11.548;2022-09-12T09:22:03;3.50;;;3.00;;
4009;SDS011;2019;48.200;11.548;2022-09-12T09:24:37;5.73;;;3.50;;
4009;SDS011;2019;48.200;11.548;2022-09-12T09:27:13;5.07;;;3.00;;
4009;SDS011;2019;48.200;11.548;2022-09-12T09:29:49;5.83;;;3.10;;
4009;SDS011;2019;48.200;11.548;2022-09-12T09:32:20;3.80;;;3.30;;
4009;SDS011;2019;48.200;11.548;2022-09-12T09:34:51;11.30;;;3.00;;
4009;SDS011;2019;48.200;11.548;2022-09-12T09:45:23;4.07;;;3.23;;
4009;SDS011;2019;48.200;11.548;2022-09-12T09:47:52;10.97;;;3.77;;
4009;SDS011;2019;48.200;11.548;2022-09-12T09:50:21;5.57;;;2.87;;
4009;SDS011;2019;48.200;11.548;2022-09-12T09:52:48;3.30;;;3.00;;
4009;SDS011;2019;48.200;11.548;2022-09-12T09:55:19;4.10;;;2.77;;
4009;SDS011;2019;48.200;11.548;2022-09-12T09:57:52;3.80;;;3.00;;
4009;SDS011;2019;48.200;11.548;2022-09-12T10:00:30;3.80;;;3.17;;
4009;SDS011;2019;48.200;11.548;2022-09-12T10:05:27;3.37;;;3.07;;
4009;SDS011;2019;48.200;11.548;2022-09-12T10:07:53;3.30;;;3.00;;
4009;SDS011;2019;48.200;11.548;2022-09-12T10:10:19;3.70;;;2.77;;
4009;SDS011;2019;48.200;11.548;2022-09-12T10:12:48;3.60;;;3.20;;
4009;SDS011;2019;48.200;11.548;2022-09-12T10:17:50;3.30;;;2.53;;
4009;SDS011;2019;48.200;11.548;2022-09-12T10:25:46;3.57;;;3.00;;
4009;SDS011;2019;48.200;11.548;2022-09-12T10:28:22;4.73;;;3.43;;
4009;SDS011;2019;48.200;11.548;2022-09-12T10:30:54;3.50;;;2.60;;
4009;SDS011;2019;48.200;11.548;2022-09-12T10:33:20;4.20;;;3.20;;
4009;SDS011;2019;48.200;11.548;2022-09-12T10:35:49;5.40;;;3.53;;
4009;SDS011;2019;48.200;11.548;2022-09-12T10:38:35;4.73;;;3.33;;
4009;SDS011;2019;48.200;11.548;2022-09-12T10:41:03;3.60;;;2.80;;
4009;SDS011;2019;48.200;11.548;2022-09-12T10:43:37;5.37;;;3.67;;
4009;SDS011;2019;48.200;11.548;2022-09-12T10:48:41;4.67;;;3.43;;
4009;SDS011;2019;48.200;11.548;2022-09-12T10:53:50;3.63;;;3.23;;
4009;SDS011;2019;48.200;11.548;2022-09-12T11:01:27;4.23;;;3.20;;
4009;SDS011;2019;48.200;11.548;2022-09-12T11:17:24;4.50;;;3.27;;
4009;SDS011;2019;48.200;11.548;2022-09-12T11:28:30;3.30;;;2.77;;
4009;SDS011;2019;48.200;11.548;2022-09-12T11:31:12;3.40;;;3.10;;
4009;SDS011;2019;48.200;11.548;2022-09-12T11:33:54;3.80;;;3.13;;
4009;SDS011;2019;48.200;11.548;2022-09-12T11:36:30;3.43;;;2.70;;
4009;SDS011;2019;48.200;11.548;2022-09-12T11:39:11;3.33;;;2.57;;
4009;SDS011;2019;48.200;11.548;2022-09-12T11:41:48;3.37;;;3.07;;
4009;SDS011;2019;48.200;11.548;2022-09-12T11:44:25;3.67;;;2.83;;
4009;SDS011;2019;48.200;11.548;2022-09-12T11:46:58;3.73;;;2.67;;
4009;SDS011;2019;48.200;11.548;2022-09-12T11:49:44;3.03;;;2.73;;
4009;SDS011;2019;48.200;11.548;2022-09-12T11:52:18;3.50;;;2.80;;
4009;SDS011;2019;48.200;11.548;2022-09-12T12:00:17;4.20;;;2.70;;
4009;SDS011;2019;48.200;11.548;2022-09-12T12:05:34;4.80;;;2.80;;
4009;SDS011;2019;48.200;11.548;2022-09-12T12:08:16;4.57;;;3.03;;
4009;SDS011;2019;48.200;11.548;2022-09-12T12:13:26;3.50;;;2.60;;
4009;SDS011;2019;48.200;11.548;2022-09-12T12:15:59;3.27;;;2.90;;
4009;SDS011;2019;48.200;11.548;2022-09-12T12:18:36;2.80;;;2.40;;
4009;SDS011;2019;48.200;11.548;2022-09-12T12:32:17;3.03;;;2.73;;
4009;SDS011;2019;48.200;11.548;2022-09-12T12:34:44;2.53;;;2.33;;
4009;SDS011;2019;48.200;11.548;2022-09-12T12:42:58;3.33;;;2.33;;
4009;SDS011;2019;48.200;11.548;2022-09-12T12:50:07;2.80;;;2.60;;
4009;SDS011;2019;48.200;11.548;2022-09-12T12:52:51;2.43;;;2.23;;
4009;SDS011;2019;48.200;11.548;2022-09-12T12:55:32;3.20;;;2.50;;
4009;SDS011;2019;48.200;11.548;2022-09-12T12:58:02;3.60;;;2.50;;
4009;SDS011;2019;48.200;11.548;2022-09-12T13:00:31;3.60;;;2.30;;
4009;SDS011;2019;48.200;11.548;2022-09-12T13:02:59;2.80;;;2.60;;
4009;SDS011;2019;48.200;11.548;2022-09-12T13:05:26;2.80;;;2.50;;
4009;SDS011;2019;48.200;11.548;2022-09-12T13:07:55;4.73;;;2.10;;
4009;SDS011;2019;48.200;11.548;2022-09-12T13:10:31;4.70;;;2.47;;
4009;SDS011;2019;48.200;11.548;2022-09-12T13:12:59;3.10;;;2.63;;
4009;SDS011;2019;48.200;11.548;2022-09-12T13:18:01;3.00;;;2.70;;
4009;SDS011;2019;48.200;11.548;2022-09-12T13:20:30;3.37;;;2.33;;
4009;SDS011;2019;48.200;11.548;2022-09-12T13:23:02;4.83;;;2.50;;
4009;SDS011;2019;48.200;11.548;2022-09-12T13:30:36;3.60;;;2.50;;
4009;SDS011;2019;48.200;11.548;2022-09-12T13:33:17;2.73;;;2.37;;
4009;SDS011;2019;48.200;11.548;2022-09-12T13:41:51;6.93;;;2.50;;
4009;SDS011;2019;48.200;11.548;2022-09-12T13:44:45;2.50;;;2.27;;
4009;SDS011;2019;48.200;11.548;2022-09-12T13:47:16;3.83;;;2.07;;
4009;SDS011;2019;48.200;11.548;2022-09-12T13:49:54;2.70;;;2.20;;
4009;SDS011;2019;48.200;11.548;2022-09-12T13:52:22;4.17;;;2.30;;
4009;SDS011;2019;48.200;11.548;2022-09-12T13:54:52;3.03;;;2.50;;
4009;SDS011;2019;48.200;11.548;2022-09-12T13:57:29;4.63;;;2.63;;
4009;SDS011;2019;48.200;11.548;2022-09-12T13:59:57;4.07;;;2.87;;
4009;SDS011;2019;48.200;11.548;2022-09-12T14:02:25;3.80;;;2.33;;
4009;SDS011;2019;48.200;11.548;2022-09-12T14:04:53;2.87;;;1.93;;
4009;SDS011;2019;48.200;11.548;2022-09-12T14:07:36;4.87;;;2.37;;
4009;SDS011;2019;48.200;11.548;2022-09-12T14:10:41;2.57;;;2.20;;
4009;SDS011;2019;48.200;11.548;2022-09-12T14:13:20;4.20;;;3.03;;
4009;SDS011;2019;48.200;11.548;2022-09-12T14:15:49;2.90;;;2.60;;
4009;SDS011;2019;48.200;11.548;2022-09-12T14:18:24;2.60;;;2.30;;
4009;SDS011;2019;48.200;11.548;2022-09-12T14:20:59;3.00;;;2.60;;
4009;SDS011;2019;48.200;11.548;2022-09-12T14:23:34;2.90;;;2.60;;
4009;SDS011;2019;48.200;11.548;2022-09-12T14:26:08;4.23;;;2.77;;
4009;SDS011;2019;48.200;11.548;2022-09-12T14:28:38;2.90;;;2.70;;
4009;SDS011;2019;48.200;11.548;2022-09-12T14:33:46;3.60;;;2.43;;
4009;SDS011;2019;48.200;11.548;2022-09-12T14:38:51;2.60;;;2.27;;
4009;SDS011;2019;48.200;11.548;2022-09-12T14:41:21;2.27;;;2.07;;
4009;SDS011;2019;48.200;11.548;2022-09-12T14:44:00;3.97;;;2.33;;
4009;SDS011;2019;48.200;11.548;2022-09-12T14:46:38;2.87;;;2.60;;
4009;SDS011;2019;48.200;11.548;2022-09-12T14:49:07;2.47;;;2.27;;
4009;SDS011;2019;48.200;11.548;2022-09-12T14:51:43;2.27;;;2.07;;
4009;SDS011;2019;48.200;11.548;2022-09-12T14:56:56;3.33;;;2.80;;
4009;SDS011;2019;48.200;11.548;2022-09-12T15:04:52;2.63;;;2.17;;
4009;SDS011;2019;48.200;11.548;2022-09-12T15:07:38;2.97;;;2.50;;
4009;SDS011;2019;48.200;11.548;2022-09-12T15:15:30;3.03;;;2.10;;
4009;SDS011;2019;48.200;11.548;2022-09-12T15:17:56;3.00;;;2.40;;
4009;SDS011;2019;48.200;11.548;2022-09-12T15:20:22;2.70;;;2.50;;
4009;SDS011;2019;48.200;11.548;2022-09-12T15:22:48;3.37;;;2.40;;
4009;SDS011;2019;48.200;11.548;2022-09-12T15:25:14;4.50;;;2.13;;
4009;SDS011;2019;48.200;11.548;2022-09-12T15:27:40;2.20;;;2.00;;
4009;SDS011;2019;48.200;11.548;2022-09-12T15:30:07;4.23;;;2.63;;
4009;SDS011;2019;48.200;11.548;2022-09-12T15:32:34;2.10;;;1.90;;
4009;SDS011;2019;48.200;11.548;2022-09-12T15:35:00;2.87;;;2.57;;
4009;SDS011;2019;48.200;11.548;2022-09-12T15:37:26;4.90;;;2.40;;
4009;SDS011;2019;48.200;11.548;2022-09-12T15:39:53;4.10;;;3.00;;
4009;SDS011;2019;48.200;11.548;2022-09-12T15:42:27;3.97;;;2.60;;
4009;SDS011;2019;48.200;11.548;2022-09-12T15:44:53;4.37;;;2.50;;
4009;SDS011;2019;48.200;11.548;2022-09-12T15:47:19;4.33;;;2.20;;
4009;SDS011;2019;48.200;11.548;2022-09-12T15:49:46;3.40;;;2.40;;
4009;SDS011;2019;48.200;11.548;2022-09-12T15:52:13;2.87;;;2.30;;
4009;SDS011;2019;48.200;11.548;2022-09-12T15:54:40;3.97;;;2.60;;
4009;SDS011;2019;48.200;11.548;2022-09-12T15:57:06;3.00;;;2.53;;
4009;SDS011;2019;48.200;11.548;2022-09-12T15:59:32;3.70;;;2.60;;
4009;SDS011;2019;48.200;11.548;2022-09-12T16:01:58;4.13;;;2.43;;
4009;SDS011;2019;48.200;11.548;2022-09-12T16:04:24;2.60;;;2.33;;
4009;SDS011;2019;48.200;11.548;2022-09-12T16:06:52;3.97;;;2.30;;
4009;SDS011;2019;48.200;11.548;2022-09-12T16:09:19;3.13;;;2.30;;
4009;SDS011;2019;48.200;11.548;2022-09-12T16:11:45;4.73;;;2.40;;
4009;SDS011;2019;48.200;11.548;2022-09-12T16:14:15;6.23;;;2.43;;
4009;SDS011;2019;48.200;11.548;2022-09-12T16:16:42;2.93;;;2.57;;
4009;SDS011;2019;48.200;11.548;2022-09-12T16:19:08;2.40;;;2.20;;
4009;SDS011;2019;48.200;11.548;2022-09-12T16:21:35;3.83;;;2.63;;
4009;SDS011;2019;48.200;11.548;2022-09-12T16:24:02;2.60;;;2.40;;
4009;SDS011;2019;48.200;11.548;2022-09-12T16:26:28;3.70;;;2.33;;
4009;SDS011;2019;48.200;11.548;2022-09-12T16:28:57;3.00;;;2.40;;
4009;SDS011;2019;48.200;11.548;2022-09-12T16:31:23;2.90;;;2.27;;
4009;SDS011;2019;48.200;11.548;2022-09-12T16:33:50;2.23;;;2.03;;
4009;SDS011;2019;48.200;11.548;2022-09-12T16:36:17;2.90;;;2.60;;
4009;SDS011;2019;48.200;11.548;2022-09-12T16:38:47;3.53;;;2.60;;
4009;SDS011;2019;48.200;11.548;2022-09-12T16:41:17;3.80;;;2.40;;
4009;SDS011;2019;48.200;11.548;2022-09-12T16:43:45;3.17;;;2.47;;
4009;SDS011;2019;48.200;11.548;2022-09-12T16:46:15;3.53;;;2.87;;
4009;SDS011;2019;48.200;11.548;2022-09-12T16:48:46;3.73;;;2.73;;
4009;SDS011;2019;48.200;11.548;2022-09-12T16:51:17;3.00;;;2.43;;
4009;SDS011;2019;48.200;11.548;2022-09-12T16:53:45;5.13;;;3.00;;
4009;SDS011;2019;48.200;11.548;2022-09-12T16:56:11;3.23;;;2.90;;
4009;SDS011;2019;48.200;11.548;2022-09-12T16:58:38;3.00;;;2.70;;
4009;SDS011;2019;48.200;11.548;2022-09-12T17:01:12;3.50;;;3.07;;
4009;SDS011;2019;48.200;11.548;2022-09-12T17:03:42;3.57;;;3.27;;
4009;SDS011;2019;48.200;11.548;2022-09-12T17:06:09;13.27;;;3.27;;
4009;SDS011;2019;48.200;11.548;2022-09-12T17:08:43;10.47;;;3.37;;
4009;SDS011;2019;48.200;11.548;2022-09-12T17:11:12;3.77;;;3.43;;
4009;SDS011;2019;48.200;11.548;2022-09-12T17:13:40;7.47;;;3.97;;
4009;SDS011;2019;48.200;11.548;2022-09-12T17:16:10;3.80;;;3.40;;
4009;SDS011;2019;48.200;11.548;2022-09-12T17:18:36;7.93;;;3.00;;
4009;SDS011;2019;48.200;11.548;2022-09-12T17:21:02;4.00;;;3.60;;
4009;SDS011;2019;48.200;11.548;2022-09-12T17:23:29;3.97;;;3.47;;
4009;SDS011;2019;48.200;11.548;2022-09-12T17:25:55;4.20;;;3.80;;
4009;SDS011;2019;48.200;11.548;2022-09-12T17:28:21;3.63;;;3.30;;
4009;SDS011;2019;48.200;11.548;2022-09-12T17:30:52;5.77;;;3.60;;
4009;SDS011;2019;48.200;11.548;2022-09-12T17:33:20;5.43;;;3.77;;
4009;SDS011;2019;48.200;11.548;2022-09-12T17:35:45;5.87;;;3.53;;
4009;SDS011;2019;48.200;11.548;2022-09-12T17:38:11;4.47;;;3.70;;
4009;SDS011;2019;48.200;11.548;2022-09-12T17:40:36;5.40;;;3.60;;
4009;SDS011;2019;48.200;11.548;2022-09-12T17:43:02;4.27;;;3.47;;
4009;SDS011;2019;48.200;11.548;2022-09-12T17:45:28;6.27;;;4.00;;
4009;SDS011;2019;48.200;11.548;2022-09-12T17:47:54;6.30;;;4.07;;
4009;SDS011;2019;48.200;11.548;2022-09-12T17:50:19;4.97;;;3.77;;
4009;SDS011;2019;48.200;11.548;2022-09-12T17:52:45;6.53;;;4.50;;
4009;SDS011;2019;48.200;11.548;2022-09-12T17:55:11;6.63;;;3.93;;
4009;SDS011;2019;48.200;11.548;2022-09-12T17:57:39;7.30;;;4.70;;
4009;SDS011;2019;48.200;11.548;2022-09-12T18:00:05;5.03;;;3.80;;
4009;SDS011;2019;48.200;11.548;2022-09-12T18:02:33;5.17;;;4.20;;
4009;SDS011;2019;48.200;11.548;2022-09-12T18:04:58;6.53;;;4.03;;
4009;SDS011;2019;48.200;11.548;2022-09-12T18:07:25;6.90;;;4.20;;
4009;SDS011;2019;48.200;11.548;2022-09-12T18:09:51;5.73;;;4.00;;
4009;SDS011;2019;48.200;11.548;2022-09-12T18:12:18;5.13;;;4.13;;
4009;SDS011;2019;48.200;11.548;2022-09-12T18:14:44;6.53;;;4.47;;
4009;SDS011;2019;48.200;11.548;2022-09-12T18:17:09;10.00;;;4.50;;
4009;SDS011;2019;48.200;11.548;2022-09-12T18:19:35;6.80;;;3.77;;
4009;SDS011;2019;48.200;11.548;2022-09-12T18:22:02;6.80;;;4.13;;
4009;SDS011;2019;48.200;11.548;2022-09-12T18:24:30;4.97;;;4.00;;
4009;SDS011;2019;48.200;11.548;2022-09-12T18:26:55;6.00;;;4.60;;
4009;SDS011;2019;48.200;11.548;2022-09-12T18:29:21;5.33;;;4.67;;
4009;SDS011;2019;48.200;11.548;2022-09-12T18:31:48;5.20;;;4.10;;
4009;SDS011;2019;48.200;11.548;2022-09-12T18:34:14;7.37;;;5.27;;